sensor_id;sensor_type;location;lat;lon;timestamp;P1;durP1;ratioP1;P2;durP2;ratioP2
25639;SDS011;13497;48.322;16.204;2023-01-13T00:01:13;0.47;;;0.43;;
25639;SDS011;13497;48.322;16.204;2023-01-13T00:03:41;1.23;;;0.50;;
25639;SDS011;13497;48.322;16.204;2023-01-13T00:06:08;0.57;;;0.30;;
25639;SDS011;13497;48.322;16.204;2023-01-13T00:08:49;1.27;;;0.50;;
25639;SDS011;13497;48.322;16.204;2023-01-13T00:11:16;0.40;;;0.30;;
25639;SDS011;13497;48.322;16.204;2023-01-13T00:16:11;0.30;;;0.30;;
25639;SDS011;13497;48.322;16.204;2023-01-13T00:18:39;0.00;;;0.00;;
25639;SDS011;13497;48.322;16.204;2023-01-13T00:23:51;2.83;;;1.02;;
25639;SDS011;13497;48.322;16.204;2023-01-13T00:26:19;1.38;;;0.50;;
25639;SDS011;13497;48.322;16.204;2023-01-13T00:28:46;0.17;;;0.17;;
25639;SDS011;13497;48.322;16.204;2023-01-13T00:31:13;0.30;;;0.30;;
25639;SDS011;13497;48.322;16.204;2023-01-13T00:33:43;0.45;;;0.17;;
25639;SDS011;13497;48.322;16.204;2023-01-13T00:36:13;0.65;;;0.22;;
25639;SDS011;13497;48.322;16.204;2023-01-13T00:38:39;0.10;;;0.10;;
25639;SDS011;13497;48.322;16.204;2023-01-13T00:41:07;0.15;;;0.13;;
25639;SDS011;13497;48.322;16.204;2023-01-13T00:43:35;0.22;;;0.10;;
25639;SDS011;13497;48.322;16.204;2023-01-13T00:46:02;0.40;;;0.20;;
25639;SDS011;13497;48.322;16.204;2023-01-13T00:48:29;3.42;;;0.40;;
25639;SDS011;13497;48.322;16.204;2023-01-13T00:50:56;3.10;;;0.37;;
25639;SDS011;13497;48.322;16.204;2023-01-13T00:53:23;0.32;;;0.32;;
25639;SDS011;13497;48.322;16.204;2023-01-13T00:55:57;0.10;;;0.10;;
25639;SDS011;13497;48.322;16.204;2023-01-13T00:58:26;0.63;;;0.20;;
25639;SDS011;13497;48.322;16.204;2023-01-13T01:00:58;0.15;;;0.13;;
25639;SDS011;13497;48.322;16.204;2023-01-13T01:03:25;3.72;;;0.20;;
25639;SDS011;13497;48.322;16.204;2023-01-13T01:05:51;0.40;;;0.23;;
25639;SDS011;13497;48.322;16.204;2023-01-13T01:08:16;0.17;;;0.17;;
25639;SDS011;13497;48.322;16.204;2023-01-13T01:10:42;0.52;;;0.30;;
25639;SDS011;13497;48.322;16.204;2023-01-13T01:13:08;0.20;;;0.20;;
25639;SDS011;13497;48.322;16.204;2023-01-13T01:15:38;0.30;;;0.30;;
25639;SDS011;13497;48.322;16.204;2023-01-13T01:18:04;0.95;;;0.28;;
25639;SDS011;13497;48.322;16.204;2023-01-13T01:20:30;0.07;;;0.03;;
25639;SDS011;13497;48.322;16.204;2023-01-13T01:22:56;0.20;;;0.10;;
25639;SDS011;13497;48.322;16.204;2023-01-13T01:25:21;0.50;;;0.30;;
25639;SDS011;13497;48.322;16.204;2023-01-13T01:27:47;1.10;;;0.20;;
25639;SDS011;13497;48.322;16.204;2023-01-13T01:30:12;0.10;;;0.10;;
25639;SDS011;13497;48.322;16.204;2023-01-13T01:32:38;1.50;;;0.22;;
25639;SDS011;13497;48.322;16.204;2023-01-13T01:35:04;0.83;;;0.30;;
25639;SDS011;13497;48.322;16.204;2023-01-13T01:37:30;0.13;;;0.13;;
25639;SDS011;13497;48.322;16.204;2023-01-13T01:39:56;0.50;;;0.50;;
25639;SDS011;13497;48.322;16.204;2023-01-13T01:42:21;0.30;;;0.30;;
25639;SDS011;13497;48.322;16.204;2023-01-13T01:45:19;0.35;;;0.20;;
25639;SDS011;13497;48.322;16.204;2023-01-13T01:47:47;0.28;;;0.17;;
25639;SDS011;13497;48.322;16.204;2023-01-13T01:50:16;0.30;;;0.20;;
25639;SDS011;13497;48.322;16.204;2023-01-13T01:55:20;0.20;;;0.20;;
25639;SDS011;13497;48.322;16.204;2023-01-13T01:57:51;0.13;;;0.13;;
25639;SDS011;13497;48.322;16.204;2023-01-13T02:00:23;0.20;;;0.20;;
25639;SDS011;13497;48.322;16.204;2023-01-13T02:02:51;0.35;;;0.20;;
25639;SDS011;13497;48.322;16.204;2023-01-13T02:05:17;0.68;;;0.30;;
25639;SDS011;13497;48.322;16.204;2023-01-13T02:07:43;0.10;;;0.05;;
25639;SDS011;13497;48.322;16.204;2023-01-13T02:10:12;0.20;;;0.20;;
25639;SDS011;13497;48.322;16.204;2023-01-13T02:12:41;0.10;;;0.10;;
25639;SDS011;13497;48.322;16.204;2023-01-13T02:23:30;0.85;;;0.50;;
25639;SDS011;13497;48.322;16.204;2023-01-13T02:29:11;0.10;;;0.10;;
25639;SDS011;13497;48.322;16.204;2023-01-13T02:32:03;0.60;;;0.20;;
25639;SDS011;13497;48.322;16.204;2023-01-13T02:34:41;0.10;;;0.10;;
25639;SDS011;13497;48.322;16.204;2023-01-13T02:37:14;0.30;;;0.30;;
25639;SDS011;13497;48.322;16.204;2023-01-13T02:39:47;0.10;;;0.10;;
25639;SDS011;13497;48.322;16.204;2023-01-13T02:42:26;0.22;;;0.22;;
25639;SDS011;13497;48.322;16.204;2023-01-13T02:45:17;0.20;;;0.20;;
25639;SDS011;13497;48.322;16.204;2023-01-13T02:48:05;0.65;;;0.40;;
25639;SDS011;13497;48.322;16.204;2023-01-13T02:50:37;0.70;;;0.10;;
25639;SDS011;13497;48.322;16.204;2023-01-13T02:53:29;0.70;;;0.00;;
25639;SDS011;13497;48.322;16.204;2023-01-13T02:55:58;0.13;;;0.13;;
25639;SDS011;13497;48.322;16.204;2023-01-13T02:58:28;3.08;;;0.75;;
25639;SDS011;13497;48.322;16.204;2023-01-13T03:00:56;0.15;;;0.05;;
25639;SDS011;13497;48.322;16.204;2023-01-13T03:03:22;1.30;;;0.10;;
25639;SDS011;13497;48.322;16.204;2023-01-13T03:05:48;1.45;;;0.32;;
25639;SDS011;13497;48.322;16.204;2023-01-13T03:13:41;0.87;;;0.00;;
25639;SDS011;13497;48.322;16.204;2023-01-13T03:19:20;0.00;;;0.00;;
25639;SDS011;13497;48.322;16.204;2023-01-13T03:21:58;1.98;;;0.10;;
25639;SDS011;13497;48.322;16.204;2023-01-13T03:24:27;0.47;;;0.20;;
25639;SDS011;13497;48.322;16.204;2023-01-13T03:27:05;0.55;;;0.20;;
25639;SDS011;13497;48.322;16.204;2023-01-13T03:29:36;2.03;;;0.40;;
25639;SDS011;13497;48.322;16.204;2023-01-13T03:32:49;0.10;;;0.10;;
25639;SDS011;13497;48.322;16.204;2023-01-13T03:34:49;0.08;;;0.08;;
25639;SDS011;13497;48.322;16.204;2023-01-13T03:37:19;0.10;;;0.10;;
25639;SDS011;13497;48.322;16.204;2023-01-13T03:39:49;0.10;;;0.10;;
25639;SDS011;13497;48.322;16.204;2023-01-13T03:42:26;0.80;;;0.43;;
25639;SDS011;13497;48.322;16.204;2023-01-13T03:44:56;0.13;;;0.13;;
25639;SDS011;13497;48.322;16.204;2023-01-13T03:47:34;0.10;;;0.10;;
25639;SDS011;13497;48.322;16.204;2023-01-13T03:50:02;0.45;;;0.03;;
25639;SDS011;13497;48.322;16.204;2023-01-13T03:52:37;0.15;;;0.10;;
25639;SDS011;13497;48.322;16.204;2023-01-13T03:55:11;0.10;;;0.00;;
25639;SDS011;13497;48.322;16.204;2023-01-13T03:57:48;0.00;;;0.00;;
25639;SDS011;13497;48.322;16.204;2023-01-13T04:00:27;0.85;;;0.20;;
25639;SDS011;13497;48.322;16.204;2023-01-13T04:03:07;0.85;;;0.13;;
25639;SDS011;13497;48.322;16.204;2023-01-13T04:05:37;0.05;;;0.05;;
25639;SDS011;13497;48.322;16.204;2023-01-13T04:10:39;0.03;;;0.03;;
25639;SDS011;13497;48.322;16.204;2023-01-13T04:13:16;0.15;;;0.03;;
25639;SDS011;13497;48.322;16.204;2023-01-13T04:15:48;1.10;;;0.10;;
25639;SDS011;13497;48.322;16.204;2023-01-13T04:18:16;2.03;;;0.20;;
25639;SDS011;13497;48.322;16.204;2023-01-13T04:20:47;0.03;;;0.03;;
25639;SDS011;13497;48.322;16.204;2023-01-13T04:23:14;0.52;;;0.10;;
25639;SDS011;13497;48.322;16.204;2023-01-13T04:25:40;1.25;;;0.15;;
25639;SDS011;13497;48.322;16.204;2023-01-13T04:28:07;0.32;;;0.32;;
25639;SDS011;13497;48.322;16.204;2023-01-13T04:32:59;0.60;;;0.03;;
25639;SDS011;13497;48.322;16.204;2023-01-13T04:35:24;0.10;;;0.10;;
25639;SDS011;13497;48.322;16.204;2023-01-13T04:37:50;0.40;;;0.10;;
25639;SDS011;13497;48.322;16.204;2023-01-13T04:40:16;0.30;;;0.30;;
25639;SDS011;13497;48.322;16.204;2023-01-13T04:42:42;3.83;;;0.20;;
25639;SDS011;13497;48.322;16.204;2023-01-13T04:45:09;0.50;;;0.30;;
25639;SDS011;13497;48.322;16.204;2023-01-13T04:47:35;0.63;;;0.20;;
25639;SDS011;13497;48.322;16.204;2023-01-13T04:50:01;0.20;;;0.20;;
25639;SDS011;13497;48.322;16.204;2023-01-13T04:52:26;2.17;;;0.50;;
25639;SDS011;13497;48.322;16.204;2023-01-13T04:54:52;0.30;;;0.30;;
25639;SDS011;13497;48.322;16.204;2023-01-13T04:57:17;0.20;;;0.20;;
25639;SDS011;13497;48.322;16.204;2023-01-13T04:59:43;0.10;;;0.10;;
25639;SDS011;13497;48.322;16.204;2023-01-13T05:02:08;2.73;;;0.67;;
25639;SDS011;13497;48.322;16.204;2023-01-13T05:04:38;1.00;;;0.20;;
25639;SDS011;13497;48.322;16.204;2023-01-13T05:07:04;0.20;;;0.13;;
25639;SDS011;13497;48.322;16.204;2023-01-13T05:09:30;0.53;;;0.10;;
25639;SDS011;13497;48.322;16.204;2023-01-13T05:11:56;0.00;;;0.00;;
25639;SDS011;13497;48.322;16.204;2023-01-13T05:14:40;1.80;;;0.45;;
25639;SDS011;13497;48.322;16.204;2023-01-13T05:17:24;0.35;;;0.35;;
25639;SDS011;13497;48.322;16.204;2023-01-13T05:19:51;0.75;;;0.30;;
25639;SDS011;13497;48.322;16.204;2023-01-13T05:22:17;0.83;;;0.53;;
25639;SDS011;13497;48.322;16.204;2023-01-13T05:25:01;3.35;;;0.32;;
25639;SDS011;13497;48.322;16.204;2023-01-13T05:27:45;2.70;;;0.35;;
25639;SDS011;13497;48.322;16.204;2023-01-13T05:30:14;0.10;;;0.10;;
25639;SDS011;13497;48.322;16.204;2023-01-13T05:32:40;0.30;;;0.30;;
25639;SDS011;13497;48.322;16.204;2023-01-13T05:35:06;0.13;;;0.10;;
25639;SDS011;13497;48.322;16.204;2023-01-13T05:37:32;0.10;;;0.10;;
25639;SDS011;13497;48.322;16.204;2023-01-13T05:39:58;0.20;;;0.20;;
25639;SDS011;13497;48.322;16.204;2023-01-13T05:42:42;0.80;;;0.03;;
25639;SDS011;13497;48.322;16.204;2023-01-13T05:45:28;1.58;;;0.13;;
25639;SDS011;13497;48.322;16.204;2023-01-13T05:47:55;0.10;;;0.10;;
25639;SDS011;13497;48.322;16.204;2023-01-13T05:50:20;0.65;;;0.10;;
25639;SDS011;13497;48.322;16.204;2023-01-13T05:52:46;0.13;;;0.13;;
25639;SDS011;13497;48.322;16.204;2023-01-13T05:55:12;0.10;;;0.10;;
25639;SDS011;13497;48.322;16.204;2023-01-13T05:57:38;0.20;;;0.20;;
25639;SDS011;13497;48.322;16.204;2023-01-13T06:00:04;0.38;;;0.28;;
25639;SDS011;13497;48.322;16.204;2023-01-13T06:02:30;0.80;;;0.30;;
25639;SDS011;13497;48.322;16.204;2023-01-13T06:04:56;0.20;;;0.20;;
25639;SDS011;13497;48.322;16.204;2023-01-13T06:07:22;1.10;;;0.10;;
25639;SDS011;13497;48.322;16.204;2023-01-13T06:09:48;2.47;;;0.50;;
25639;SDS011;13497;48.322;16.204;2023-01-13T06:12:13;0.10;;;0.10;;
25639;SDS011;13497;48.322;16.204;2023-01-13T06:14:39;0.07;;;0.07;;
25639;SDS011;13497;48.322;16.204;2023-01-13T06:19:37;6.32;;;0.82;;
25639;SDS011;13497;48.322;16.204;2023-01-13T06:22:20;7.03;;;0.85;;
25639;SDS011;13497;48.322;16.204;2023-01-13T06:24:49;0.10;;;0.10;;
25639;SDS011;13497;48.322;16.204;2023-01-13T06:27:17;0.88;;;0.25;;
25639;SDS011;13497;48.322;16.204;2023-01-13T06:29:43;1.40;;;0.35;;
25639;SDS011;13497;48.322;16.204;2023-01-13T06:32:19;3.17;;;0.53;;
25639;SDS011;13497;48.322;16.204;2023-01-13T06:34:59;0.38;;;0.30;;
25639;SDS011;13497;48.322;16.204;2023-01-13T06:37:29;2.17;;;0.57;;
25639;SDS011;13497;48.322;16.204;2023-01-13T06:39:57;1.45;;;0.70;;
25639;SDS011;13497;48.322;16.204;2023-01-13T06:42:28;4.35;;;0.40;;
25639;SDS011;13497;48.322;16.204;2023-01-13T06:45:16;1.50;;;0.43;;
25639;SDS011;13497;48.322;16.204;2023-01-13T06:47:42;1.17;;;0.80;;
25639;SDS011;13497;48.322;16.204;2023-01-13T06:50:08;2.93;;;1.50;;
25639;SDS011;13497;48.322;16.204;2023-01-13T06:52:36;3.97;;;1.20;;
25639;SDS011;13497;48.322;16.204;2023-01-13T06:55:02;2.72;;;1.40;;
25639;SDS011;13497;48.322;16.204;2023-01-13T06:57:28;1.85;;;0.82;;
25639;SDS011;13497;48.322;16.204;2023-01-13T06:59:54;3.10;;;2.03;;
25639;SDS011;13497;48.322;16.204;2023-01-13T07:02:19;0.87;;;0.73;;
25639;SDS011;13497;48.322;16.204;2023-01-13T07:04:45;1.30;;;1.17;;
25639;SDS011;13497;48.322;16.204;2023-01-13T07:07:11;1.87;;;1.03;;
25639;SDS011;13497;48.322;16.204;2023-01-13T07:09:38;1.15;;;0.55;;
25639;SDS011;13497;48.322;16.204;2023-01-13T07:12:04;2.42;;;0.85;;
25639;SDS011;13497;48.322;16.204;2023-01-13T07:14:29;1.73;;;1.13;;
25639;SDS011;13497;48.322;16.204;2023-01-13T07:17:13;4.10;;;1.10;;
25639;SDS011;13497;48.322;16.204;2023-01-13T07:19:39;3.27;;;1.63;;
25639;SDS011;13497;48.322;16.204;2023-01-13T07:22:04;4.13;;;2.80;;
25639;SDS011;13497;48.322;16.204;2023-01-13T07:24:30;6.30;;;2.87;;
25639;SDS011;13497;48.322;16.204;2023-01-13T07:26:55;7.93;;;2.50;;
25639;SDS011;13497;48.322;16.204;2023-01-13T07:29:21;7.43;;;2.57;;
25639;SDS011;13497;48.322;16.204;2023-01-13T07:31:47;5.53;;;2.10;;
25639;SDS011;13497;48.322;16.204;2023-01-13T07:34:12;0.63;;;0.63;;
25639;SDS011;13497;48.322;16.204;2023-01-13T07:36:38;0.20;;;0.20;;
25639;SDS011;13497;48.322;16.204;2023-01-13T07:39:04;0.17;;;0.17;;
25639;SDS011;13497;48.322;16.204;2023-01-13T07:41:30;0.50;;;0.20;;
25639;SDS011;13497;48.322;16.204;2023-01-13T07:44:14;1.17;;;0.40;;
25639;SDS011;13497;48.322;16.204;2023-01-13T07:46:40;0.77;;;0.30;;
25639;SDS011;13497;48.322;16.204;2023-01-13T07:49:05;1.60;;;0.40;;
25639;SDS011;13497;48.322;16.204;2023-01-13T07:51:34;0.45;;;0.45;;
25639;SDS011;13497;48.322;16.204;2023-01-13T07:54:03;1.05;;;0.50;;
25639;SDS011;13497;48.322;16.204;2023-01-13T07:56:29;1.15;;;0.47;;
25639;SDS011;13497;48.322;16.204;2023-01-13T07:58:55;3.00;;;0.90;;
25639;SDS011;13497;48.322;16.204;2023-01-13T08:01:23;1.38;;;0.80;;
25639;SDS011;13497;48.322;16.204;2023-01-13T08:03:49;4.63;;;1.37;;
25639;SDS011;13497;48.322;16.204;2023-01-13T08:06:14;3.17;;;1.23;;
25639;SDS011;13497;48.322;16.204;2023-01-13T08:08:40;3.83;;;0.73;;
25639;SDS011;13497;48.322;16.204;2023-01-13T08:11:06;0.90;;;0.40;;
25639;SDS011;13497;48.322;16.204;2023-01-13T08:15:59;8.32;;;2.35;;
25639;SDS011;13497;48.322;16.204;2023-01-13T08:18:26;3.42;;;1.55;;
25639;SDS011;13497;48.322;16.204;2023-01-13T08:20:52;4.15;;;1.33;;
25639;SDS011;13497;48.322;16.204;2023-01-13T08:23:18;8.50;;;3.03;;
25639;SDS011;13497;48.322;16.204;2023-01-13T08:25:45;9.40;;;3.28;;
25639;SDS011;13497;48.322;16.204;2023-01-13T08:28:11;3.90;;;1.87;;
25639;SDS011;13497;48.322;16.204;2023-01-13T08:30:37;11.32;;;3.13;;
25639;SDS011;13497;48.322;16.204;2023-01-13T08:33:07;6.60;;;2.78;;
25639;SDS011;13497;48.322;16.204;2023-01-13T08:35:34;7.28;;;1.60;;
25639;SDS011;13497;48.322;16.204;2023-01-13T08:38:01;2.20;;;1.63;;
25639;SDS011;13497;48.322;16.204;2023-01-13T08:40:27;4.67;;;1.70;;
25639;SDS011;13497;48.322;16.204;2023-01-13T08:42:54;6.20;;;2.17;;
25639;SDS011;13497;48.322;16.204;2023-01-13T08:45:20;4.35;;;2.22;;
25639;SDS011;13497;48.322;16.204;2023-01-13T08:47:45;6.13;;;2.83;;
25639;SDS011;13497;48.322;16.204;2023-01-13T08:50:11;6.50;;;1.53;;
25639;SDS011;13497;48.322;16.204;2023-01-13T08:52:37;1.87;;;1.33;;
25639;SDS011;13497;48.322;16.204;2023-01-13T08:55:03;5.60;;;2.47;;
25639;SDS011;13497;48.322;16.204;2023-01-13T08:57:29;10.63;;;3.70;;
25639;SDS011;13497;48.322;16.204;2023-01-13T08:59:54;8.07;;;3.07;;
25639;SDS011;13497;48.322;16.204;2023-01-13T09:02:20;8.37;;;3.23;;
25639;SDS011;13497;48.322;16.204;2023-01-13T09:04:47;7.88;;;3.53;;
25639;SDS011;13497;48.322;16.204;2023-01-13T09:07:13;5.55;;;2.65;;
25639;SDS011;13497;48.322;16.204;2023-01-13T09:09:40;3.53;;;2.28;;
25639;SDS011;13497;48.322;16.204;2023-01-13T09:12:06;2.47;;;1.92;;
25639;SDS011;13497;48.322;16.204;2023-01-13T09:14:53;4.47;;;1.95;;
25639;SDS011;13497;48.322;16.204;2023-01-13T09:17:18;5.80;;;2.13;;
25639;SDS011;13497;48.322;16.204;2023-01-13T09:19:44;2.50;;;1.13;;
25639;SDS011;13497;48.322;16.204;2023-01-13T09:22:13;5.80;;;1.30;;
25639;SDS011;13497;48.322;16.204;2023-01-13T09:24:40;3.65;;;1.52;;
25639;SDS011;13497;48.322;16.204;2023-01-13T09:27:06;3.15;;;1.52;;
25639;SDS011;13497;48.322;16.204;2023-01-13T09:29:32;3.63;;;1.75;;
25639;SDS011;13497;48.322;16.204;2023-01-13T09:31:58;2.93;;;1.50;;
25639;SDS011;13497;48.322;16.204;2023-01-13T09:34:24;3.77;;;1.43;;
25639;SDS011;13497;48.322;16.204;2023-01-13T09:37:08;3.97;;;1.92;;
25639;SDS011;13497;48.322;16.204;2023-01-13T09:39:34;2.23;;;1.57;;
25639;SDS011;13497;48.322;16.204;2023-01-13T09:45:33;2.47;;;1.02;;
25639;SDS011;13497;48.322;16.204;2023-01-13T09:48:09;2.20;;;1.60;;
25639;SDS011;13497;48.322;16.204;2023-01-13T09:55:56;4.87;;;1.77;;
25639;SDS011;13497;48.322;16.204;2023-01-13T09:58:21;6.67;;;2.33;;
25639;SDS011;13497;48.322;16.204;2023-01-13T10:01:34;1.27;;;1.17;;
25639;SDS011;13497;48.322;16.204;2023-01-13T10:03:45;3.38;;;1.60;;
25639;SDS011;13497;48.322;16.204;2023-01-13T10:06:17;4.03;;;1.58;;
25639;SDS011;13497;48.322;16.204;2023-01-13T10:08:53;2.67;;;2.05;;
25639;SDS011;13497;48.322;16.204;2023-01-13T10:11:23;3.75;;;1.42;;
25639;SDS011;13497;48.322;16.204;2023-01-13T10:22:35;2.42;;;1.13;;
25639;SDS011;13497;48.322;16.204;2023-01-13T10:28:25;1.92;;;1.40;;
25639;SDS011;13497;48.322;16.204;2023-01-13T10:30:51;1.70;;;0.93;;
25639;SDS011;13497;48.322;16.204;2023-01-13T10:33:18;5.87;;;2.07;;
25639;SDS011;13497;48.322;16.204;2023-01-13T10:35:52;4.35;;;2.33;;
25639;SDS011;13497;48.322;16.204;2023-01-13T10:40:53;4.20;;;1.60;;
25639;SDS011;13497;48.322;16.204;2023-01-13T10:43:23;2.25;;;0.85;;
25639;SDS011;13497;48.322;16.204;2023-01-13T10:46:00;0.20;;;0.20;;
25639;SDS011;13497;48.322;16.204;2023-01-13T10:51:10;0.20;;;0.20;;
25639;SDS011;13497;48.322;16.204;2023-01-13T10:53:52;0.17;;;0.17;;
25639;SDS011;13497;48.322;16.204;2023-01-13T10:56:21;0.55;;;0.55;;
25639;SDS011;13497;48.322;16.204;2023-01-13T10:58:50;0.38;;;0.28;;
25639;SDS011;13497;48.322;16.204;2023-01-13T11:01:22;0.10;;;0.10;;
25639;SDS011;13497;48.322;16.204;2023-01-13T11:03:50;0.17;;;0.10;;
25639;SDS011;13497;48.322;16.204;2023-01-13T11:06:18;0.10;;;0.10;;
25639;SDS011;13497;48.322;16.204;2023-01-13T11:08:46;0.22;;;0.10;;
25639;SDS011;13497;48.322;16.204;2023-01-13T11:11:25;0.20;;;0.20;;
25639;SDS011;13497;48.322;16.204;2023-01-13T11:13:51;0.25;;;0.25;;
25639;SDS011;13497;48.322;16.204;2023-01-13T11:16:37;0.55;;;0.10;;
25639;SDS011;13497;48.322;16.204;2023-01-13T11:19:06;0.40;;;0.25;;
25639;SDS011;13497;48.322;16.204;2023-01-13T11:24:36;1.92;;;0.32;;
25639;SDS011;13497;48.322;16.204;2023-01-13T11:30:09;3.13;;;0.20;;
25639;SDS011;13497;48.322;16.204;2023-01-13T11:35:37;0.20;;;0.20;;
25639;SDS011;13497;48.322;16.204;2023-01-13T11:40:59;0.40;;;0.20;;
25639;SDS011;13497;48.322;16.204;2023-01-13T11:43:45;0.10;;;0.10;;
25639;SDS011;13497;48.322;16.204;2023-01-13T11:46:14;0.25;;;0.10;;
25639;SDS011;13497;48.322;16.204;2023-01-13T11:48:40;0.20;;;0.20;;
25639;SDS011;13497;48.322;16.204;2023-01-13T11:56:25;0.17;;;0.17;;
25639;SDS011;13497;48.322;16.204;2023-01-13T11:59:27;0.20;;;0.20;;
25639;SDS011;13497;48.322;16.204;2023-01-13T12:08:15;0.30;;;0.30;;
25639;SDS011;13497;48.322;16.204;2023-01-13T12:16:29;0.20;;;0.20;;
25639;SDS011;13497;48.322;16.204;2023-01-13T12:27:26;0.50;;;0.50;;
25639;SDS011;13497;48.322;16.204;2023-01-13T12:29:57;0.55;;;0.25;;
25639;SDS011;13497;48.322;16.204;2023-01-13T12:32:35;0.25;;;0.20;;
25639;SDS011;13497;48.322;16.204;2023-01-13T12:51:36;0.13;;;0.13;;
25639;SDS011;13497;48.322;16.204;2023-01-13T12:57:03;0.43;;;0.20;;
25639;SDS011;13497;48.322;16.204;2023-01-13T12:59:44;3.83;;;1.35;;
25639;SDS011;13497;48.322;16.204;2023-01-13T13:02:38;0.10;;;0.10;;
25639;SDS011;13497;48.322;16.204;2023-01-13T13:07:46;0.55;;;0.30;;
25639;SDS011;13497;48.322;16.204;2023-01-13T13:10:18;0.75;;;0.47;;
25639;SDS011;13497;48.322;16.204;2023-01-13T13:12:53;0.10;;;0.10;;
25639;SDS011;13497;48.322;16.204;2023-01-13T13:15:45;0.30;;;0.30;;
25639;SDS011;13497;48.322;16.204;2023-01-13T13:23:26;2.53;;;0.98;;
25639;SDS011;13497;48.322;16.204;2023-01-13T13:28:47;0.40;;;0.28;;
25639;SDS011;13497;48.322;16.204;2023-01-13T13:35:24;0.47;;;0.47;;
25639;SDS011;13497;48.322;16.204;2023-01-13T13:40:45;0.47;;;0.20;;
25639;SDS011;13497;48.322;16.204;2023-01-13T13:43:37;0.80;;;0.65;;
25639;SDS011;13497;48.322;16.204;2023-01-13T13:49:32;0.32;;;0.20;;
25639;SDS011;13497;48.322;16.204;2023-01-13T13:54:54;0.35;;;0.30;;
25639;SDS011;13497;48.322;16.204;2023-01-13T13:57:36;0.40;;;0.40;;
25639;SDS011;13497;48.322;16.204;2023-01-13T14:02:51;1.10;;;0.50;;
25639;SDS011;13497;48.322;16.204;2023-01-13T14:05:21;0.28;;;0.20;;
25639;SDS011;13497;48.322;16.204;2023-01-13T14:07:50;1.08;;;0.63;;
25639;SDS011;13497;48.322;16.204;2023-01-13T14:10:24;0.70;;;0.50;;
25639;SDS011;13497;48.322;16.204;2023-01-13T14:12:57;1.15;;;0.77;;
25639;SDS011;13497;48.322;16.204;2023-01-13T14:15:25;3.45;;;0.90;;
25639;SDS011;13497;48.322;16.204;2023-01-13T14:17:53;0.60;;;0.50;;
25639;SDS011;13497;48.322;16.204;2023-01-13T14:20:19;1.10;;;0.88;;
25639;SDS011;13497;48.322;16.204;2023-01-13T14:22:45;0.90;;;0.67;;
25639;SDS011;13497;48.322;16.204;2023-01-13T14:25:25;1.67;;;1.00;;
25639;SDS011;13497;48.322;16.204;2023-01-13T14:27:58;1.55;;;0.73;;
25639;SDS011;13497;48.322;16.204;2023-01-13T14:30:29;1.23;;;0.65;;
25639;SDS011;13497;48.322;16.204;2023-01-13T14:32:56;1.90;;;0.73;;
25639;SDS011;13497;48.322;16.204;2023-01-13T14:35:25;5.05;;;1.20;;
25639;SDS011;13497;48.322;16.204;2023-01-13T14:37:52;1.38;;;1.13;;
25639;SDS011;13497;48.322;16.204;2023-01-13T14:43:00;3.50;;;1.33;;
25639;SDS011;13497;48.322;16.204;2023-01-13T14:45:28;2.08;;;1.20;;
25639;SDS011;13497;48.322;16.204;2023-01-13T14:47:57;3.13;;;1.67;;
25639;SDS011;13497;48.322;16.204;2023-01-13T14:50:25;3.08;;;1.35;;
25639;SDS011;13497;48.322;16.204;2023-01-13T14:52:57;2.38;;;1.73;;
25639;SDS011;13497;48.322;16.204;2023-01-13T14:55:31;2.63;;;1.73;;
25639;SDS011;13497;48.322;16.204;2023-01-13T15:00:47;2.20;;;1.08;;
25639;SDS011;13497;48.322;16.204;2023-01-13T15:03:14;1.02;;;1.02;;
25639;SDS011;13497;48.322;16.204;2023-01-13T15:05:48;1.02;;;0.65;;
25639;SDS011;13497;48.322;16.204;2023-01-13T15:08:18;1.50;;;0.68;;
25639;SDS011;13497;48.322;16.204;2023-01-13T15:13:29;0.30;;;0.30;;
25639;SDS011;13497;48.322;16.204;2023-01-13T15:16:10;6.90;;;0.40;;
25639;SDS011;13497;48.322;16.204;2023-01-13T15:18:56;1.00;;;0.88;;
25639;SDS011;13497;48.322;16.204;2023-01-13T15:21:22;1.85;;;0.32;;
25639;SDS011;13497;48.322;16.204;2023-01-13T15:23:49;0.30;;;0.30;;
25639;SDS011;13497;48.322;16.204;2023-01-13T15:26:18;1.27;;;0.52;;
25639;SDS011;13497;48.322;16.204;2023-01-13T15:28:49;0.50;;;0.40;;
25639;SDS011;13497;48.322;16.204;2023-01-13T15:31:19;0.75;;;0.50;;
25639;SDS011;13497;48.322;16.204;2023-01-13T15:33:47;0.47;;;0.40;;
25639;SDS011;13497;48.322;16.204;2023-01-13T15:36:23;0.75;;;0.60;;
25639;SDS011;13497;48.322;16.204;2023-01-13T15:38:53;0.98;;;0.90;;
25639;SDS011;13497;48.322;16.204;2023-01-13T15:41:20;1.63;;;1.52;;
25639;SDS011;13497;48.322;16.204;2023-01-13T15:44:06;7.32;;;2.72;;
25639;SDS011;13497;48.322;16.204;2023-01-13T15:46:52;5.57;;;2.88;;
25639;SDS011;13497;48.322;16.204;2023-01-13T15:51:47;3.40;;;2.22;;
25639;SDS011;13497;48.322;16.204;2023-01-13T15:54:13;4.90;;;1.95;;
25639;SDS011;13497;48.322;16.204;2023-01-13T15:56:39;5.37;;;2.00;;
25639;SDS011;13497;48.322;16.204;2023-01-13T15:59:09;4.32;;;2.15;;
25639;SDS011;13497;48.322;16.204;2023-01-13T16:01:43;3.70;;;2.05;;
25639;SDS011;13497;48.322;16.204;2023-01-13T16:04:09;4.93;;;2.85;;
25639;SDS011;13497;48.322;16.204;2023-01-13T16:06:35;3.47;;;2.20;;
25639;SDS011;13497;48.322;16.204;2023-01-13T16:09:01;4.33;;;2.33;;
25639;SDS011;13497;48.322;16.204;2023-01-13T16:11:27;4.50;;;2.05;;
25639;SDS011;13497;48.322;16.204;2023-01-13T16:13:53;2.93;;;1.87;;
25639;SDS011;13497;48.322;16.204;2023-01-13T16:16:23;3.10;;;2.40;;
25639;SDS011;13497;48.322;16.204;2023-01-13T16:18:50;3.20;;;1.85;;
25639;SDS011;13497;48.322;16.204;2023-01-13T16:21:16;1.98;;;1.27;;
25639;SDS011;13497;48.322;16.204;2023-01-13T16:23:46;2.55;;;1.25;;
25639;SDS011;13497;48.322;16.204;2023-01-13T16:28:49;2.55;;;1.00;;
25639;SDS011;13497;48.322;16.204;2023-01-13T16:31:17;0.40;;;0.40;;
25639;SDS011;13497;48.322;16.204;2023-01-13T16:33:57;4.88;;;0.50;;
25639;SDS011;13497;48.322;16.204;2023-01-13T16:36:24;0.32;;;0.32;;
25639;SDS011;13497;48.322;16.204;2023-01-13T16:38:50;0.40;;;0.40;;
25639;SDS011;13497;48.322;16.204;2023-01-13T16:41:17;0.50;;;0.50;;
25639;SDS011;13497;48.322;16.204;2023-01-13T16:43:44;1.30;;;1.00;;
25639;SDS011;13497;48.322;16.204;2023-01-13T16:46:15;1.38;;;0.80;;
25639;SDS011;13497;48.322;16.204;2023-01-13T16:48:42;3.67;;;1.23;;
25639;SDS011;13497;48.322;16.204;2023-01-13T16:51:07;10.90;;;3.50;;
25639;SDS011;13497;48.322;16.204;2023-01-13T16:53:33;2.33;;;1.33;;
25639;SDS011;13497;48.322;16.204;2023-01-13T16:55:59;5.93;;;1.50;;
25639;SDS011;13497;48.322;16.204;2023-01-13T16:58:25;3.30;;;1.67;;
25639;SDS011;13497;48.322;16.204;2023-01-13T17:00:51;13.77;;;1.17;;
25639;SDS011;13497;48.322;16.204;2023-01-13T17:03:16;2.60;;;1.73;;
25639;SDS011;13497;48.322;16.204;2023-01-13T17:05:43;2.73;;;2.13;;
25639;SDS011;13497;48.322;16.204;2023-01-13T17:08:13;4.78;;;2.10;;
25639;SDS011;13497;48.322;16.204;2023-01-13T17:10:42;2.03;;;1.17;;
25639;SDS011;13497;48.322;16.204;2023-01-13T17:15:34;2.47;;;0.98;;
25639;SDS011;13497;48.322;16.204;2023-01-13T17:18:00;2.33;;;0.90;;
25639;SDS011;13497;48.322;16.204;2023-01-13T17:20:26;0.85;;;0.68;;
25639;SDS011;13497;48.322;16.204;2023-01-13T17:22:53;1.13;;;0.80;;
25639;SDS011;13497;48.322;16.204;2023-01-13T17:25:19;1.40;;;1.10;;
25639;SDS011;13497;48.322;16.204;2023-01-13T17:27:44;2.03;;;1.33;;
25639;SDS011;13497;48.322;16.204;2023-01-13T17:30:10;1.90;;;0.90;;
25639;SDS011;13497;48.322;16.204;2023-01-13T17:32:39;2.15;;;0.90;;